LFMV

Avignon-Caumont Airport

Avignon/Caumont, France
TAF LFMV 141400Z 1415/1515 35010KT CAVOK TEMPO 1415/1508 33015G25KT
Issued Valid From Valid To
Dec-14 @ 14:00 UTC
(8 hours ago)
Dec-14 @ 15:00 UTC
(7 hours ago)
Dec-15 @ 15:00 UTC
(in 17 hours)
Dec-14 @ 15:00 to Dec-15 @ 15:00
TAF LFMV 141400Z 1415/1515 35010KT CAVOK
Wind Visibility Clouds Conditions
350° at 10 knots 10,000+ meters
  • No significant clouds
Temporary Dec-14 @ 15:00 to Dec-15 @ 08:00
TEMPO 1415/1508 33015G25KT
Wind
330° at 15 knots
 Gusting to 25 knots
TAF LFMV 141400Z 1415/1515 35010KT CAVOK TEMPO 1415/1508 33015G25KT
Issued Dec-14 @ 14:00 UTC
(8 hours ago)
Valid From Dec-14 @ 15:00 UTC
(7 hours ago)
Valid To Dec-15 @ 15:00 UTC
(in 17 hours)
Dec-14 @ 15:00 - Dec-15 @ 15:00
Wind Visibility
350° at 10 knots 10,000+ meters
Clouds
  • No significant clouds
Conditions
Temporary Dec-14 @ 15:00 - Dec-15 @ 08:00
Wind
330° at 15 knots
 Gusting to 25 knots